Rachel — D5CG4 — position and weather

sailwx.info

Track history (hours):
 
Tides and Currents Weather Stations Pressure Air Temp Water Temp Dewpoint Dewpoint Depression Visibility Wind Speed Wind Dir Waves Ship Positions

Rachel

Last reported at 2014-Dec-17 17:33 UTC. Time now 2014-Dec-19 21:08 UTC.
Position N 36°35' E 023°42'.

Length 189 m; draft 10.9 m.

Type: Cargo ship. MMSI: 636015692.

Date/timePositionNaut miles runAvg speedWind from/ knotsBaromVisibWave heightAir tempDewpointWater temp
2014-Dec-17 17:33N 36°35' E 023°42'1311.8
2014-Dec-17 16:26N 36°48' E 023°42'4310.9
2014-Dec-17 12:28N 37°31' E 023°42'910.1
2014-Dec-17 11:33N 37°41' E 023°42'1010.0
2014-Dec-17 10:33N 37°49' E 023°35'5 4.7
2014-Dec-17 09:33N 37°53' E 023°32'0 0.0
2014-Dec-17 08:33N 37°53' E 023°32'0 0.0
2014-Dec-17 07:33N 37°53' E 023°32'0 0.0
2014-Dec-17 06:33N 37°53' E 023°32'0 0.0
2014-Dec-17 05:33N 37°53' E 023°32'0 0.0
2014-Dec-17 04:33N 37°53' E 023°32'1 0.8
2014-Dec-17 03:33N 37°53' E 023°33'4 4.2
2014-Dec-17 02:33N 37°51' E 023°37'9 8.7
2014-Dec-17 01:33N 37°44' E 023°43'9 9.1
2014-Dec-17 00:33N 37°37' E 023°51'4 1.8
2014-Dec-16 22:33N 37°34' E 023°54'7 7.2
2014-Dec-16 21:33N 37°35' E 024°03'1410.8
2014-Dec-16 20:17N 37°43' E 024°17'911.7
2014-Dec-16 19:33N 37°48' E 024°26'2711.0
2014-Dec-16 17:07N 38°11' E 024°43'8610.0
2014-Dec-16 08:33N 39°33' E 024°15'1210.7
2014-Dec-16 07:25N 39°42' E 024°04'2010.2
2014-Dec-16 05:29N 39°45' E 023°38'1310.9
2014-Dec-16 04:18N 39°45' E 023°21'  
Track history (hours):
 
Tides and Currents Weather Stations Pressure Air Temp Water Temp Dewpoint Dewpoint Depression Visibility Wind Speed Wind Dir Waves Ship Positions

Rachel

Last reported at 2014-Dec-17 17:33 UTC. Time now 2014-Dec-19 21:08 UTC.
Position N 36°35' E 023°42'.

Length 189 m; draft 10.9 m.

Type: Cargo ship. MMSI: 636015692.

Date/timePositionNaut miles runAvg speedWind from/ knotsBaromVisibWave heightAir tempDewpointWater temp
2014-Dec-17 17:33N 36°35' E 023°42'1311.8
2014-Dec-17 16:26N 36°48' E 023°42'4310.9
2014-Dec-17 12:28N 37°31' E 023°42'910.1
2014-Dec-17 11:33N 37°41' E 023°42'1010.0
2014-Dec-17 10:33N 37°49' E 023°35'5 4.7
2014-Dec-17 09:33N 37°53' E 023°32'0 0.0
2014-Dec-17 08:33N 37°53' E 023°32'0 0.0
2014-Dec-17 07:33N 37°53' E 023°32'0 0.0
2014-Dec-17 06:33N 37°53' E 023°32'0 0.0
2014-Dec-17 05:33N 37°53' E 023°32'0 0.0
2014-Dec-17 04:33N 37°53' E 023°32'1 0.8
2014-Dec-17 03:33N 37°53' E 023°33'4 4.2
2014-Dec-17 02:33N 37°51' E 023°37'9 8.7
2014-Dec-17 01:33N 37°44' E 023°43'9 9.1
2014-Dec-17 00:33N 37°37' E 023°51'4 1.8
2014-Dec-16 22:33N 37°34' E 023°54'7 7.2
2014-Dec-16 21:33N 37°35' E 024°03'1410.8
2014-Dec-16 20:17N 37°43' E 024°17'911.7
2014-Dec-16 19:33N 37°48' E 024°26'2711.0
2014-Dec-16 17:07N 38°11' E 024°43'8610.0
2014-Dec-16 08:33N 39°33' E 024°15'1210.7
2014-Dec-16 07:25N 39°42' E 024°04'2010.2
2014-Dec-16 05:29N 39°45' E 023°38'1310.9
2014-Dec-16 04:18N 39°45' E 023°21'  

Dump ship's entire track history